Bookmark and Share
Track history (hours):
 

Murmansk

Last reported at 2013-Jun-07 13:05 UTC. Time now 2014-Apr-19 05:08 UTC.
Position S 27°32' E 033°26'.
Warning: this ship's position is months out of date.

Length 179 m; draft 9.8 m.

Type: Cargo ship. MMSI: 248934000.

NotesDate/timePositionNaut miles runAvg speedWind from/ knotsBaromVisibWave heightAir tempDewpointWater temp
2013-Jun-07 13:05S 27°32' E 033°26'8 9.5
2013-Jun-07 12:18S 27°39' E 033°22'9 9.9
2013-Jun-07 11:26S 27°46' E 033°17'2010.5
2013-Jun-07 09:30S 28°03' E 033°05'1211.0
2013-Jun-07 08:25S 28°14' E 032°58'1011.2
2013-Jun-07 07:30S 28°23' E 032°52'25 8.4
2013-Jun-07 04:33S 28°43' E 032°36'1211.3
2013-Jun-07 03:29S 28°54' E 032°29'1210.8
2013-Jun-07 02:24S 29°03' E 032°21'910.8
2013-Jun-07 01:33S 29°08' E 032°12'1110.6
2013-Jun-07 00:33S 29°14' E 032°03'1010.1
2013-Jun-06 23:33S 29°20' E 031°53'1110.7
2013-Jun-06 22:33S 29°26' E 031°43'1110.8
2013-Jun-06 21:33S 29°32' E 031°33'1110.8
2013-Jun-06 20:33S 29°40' E 031°24'1110.9
2013-Jun-06 19:33S 29°47' E 031°15'8 8.1
2013-Jun-06 18:33S 29°52' E 031°08'2 1.8
2013-Jun-06 17:33S 29°54' E 031°07'6 6.3
2013-Jun-06 16:33S 29°60' E 031°04'1010.1
2013-Jun-06 15:33S 30°09' E 030°59'1211.9
2013-Jun-06 14:33S 30°20' E 030°53'7610.4
2013-Jun-06 07:15S 31°23' E 030°04'60 8.5
2013-Jun-06 00:13S 32°08' E 029°17'7 7.9
2013-Jun-05 23:18S 32°13' E 029°12'64 9.0
2013-Jun-05 16:12S 32°57' E 028°16'3111.5
2013-Jun-05 13:31S 33°16' E 027°48'1411.9
2013-Jun-05 12:22S 33°24' E 027°35'1112.7
2013-Jun-05 11:29S 33°31' E 027°24'1613.0
2013-Jun-05 10:17S 33°41' E 027°09'2712.7
2013-Jun-05 08:11S 33°53' E 026°41'21711.6
2013-Jun-04 13:31S 34°42' E 022°24'16811.2
2013-Jun-03 22:33S 34°49' E 018°59'1110.9
2013-Jun-03 21:31S 34°45' E 018°47'1111.0
2013-Jun-03 20:33S 34°42' E 018°34'1111.1
2013-Jun-03 19:33S 34°38' E 018°22'  

Dump ship's entire track history

sailing weather and tide predictions

Murmansk — 9HWU6 — position and weather